createdAt,value
2018-07-12T00:00:45.290Z,97939.92
2018-07-12T00:01:50.163Z,97940.38
2018-07-12T00:02:54.552Z,97942.98
2018-07-12T00:03:58.726Z,97941.38
2018-07-12T00:05:02.412Z,97938.84
2018-07-12T00:06:07.483Z,97941.48
2018-07-12T00:07:11.218Z,97942.41
2018-07-12T00:08:14.849Z,97939.88
2018-07-12T00:09:18.483Z,97939.77
2018-07-12T00:10:26.058Z,97936.54
2018-07-12T00:11:30.417Z,97945.05
2018-07-12T00:12:40.306Z,97940.56
2018-07-12T00:13:44.019Z,97942.86
2018-07-12T00:14:51.248Z,97939.40
2018-07-12T00:15:58.569Z,97942.50
2018-07-12T00:17:03.528Z,97940.54
2018-07-12T00:19:24.336Z,97939.16
2018-07-12T00:20:31.218Z,97940.77
2018-07-12T00:21:37.116Z,97934.10
2018-07-12T00:22:42.237Z,97937.09
2018-07-12T00:23:46.230Z,97933.41
2018-07-12T00:24:51.387Z,97930.88
2018-07-12T00:25:56.360Z,97929.34
2018-07-12T00:27:00.228Z,97924.74
2018-07-12T00:28:05.935Z,97926.88
2018-07-12T00:29:09.803Z,97933.21
2018-07-12T00:30:13.757Z,97935.73
2018-07-12T00:31:19.021Z,97925.73
2018-07-12T00:32:23.167Z,97932.62
2018-07-12T00:33:26.798Z,97935.48
2018-07-12T00:34:30.455Z,97933.41
2018-07-12T00:35:34.141Z,97928.81
2018-07-12T00:36:39.654Z,97933.75
2018-07-12T00:37:43.334Z,97929.49
2018-07-12T00:38:47.093Z,97930.76
2018-07-12T00:39:51.281Z,97929.61
2018-07-12T00:40:55.894Z,97929.14
2018-07-12T00:41:59.571Z,97930.95
2018-07-12T00:43:03.559Z,97937.19
2018-07-12T00:44:07.816Z,97933.40
2018-07-12T00:45:11.510Z,97936.97
2018-07-12T00:46:15.165Z,97938.34
2018-07-12T00:47:20.071Z,97933.28
2018-07-12T00:48:23.734Z,97936.46
2018-07-12T00:49:28.293Z,97935.20
2018-07-12T00:50:31.926Z,97931.98
2018-07-12T00:51:35.597Z,97932.33
2018-07-12T00:52:39.641Z,97934.31
2018-07-12T00:53:43.311Z,97935.58
2018-07-12T00:54:47.725Z,97934.74
2018-07-12T00:55:51.689Z,97932.33
2018-07-12T00:56:55.757Z,97934.39
2018-07-12T00:58:01.586Z,97935.42
2018-07-12T00:59:05.503Z,97937.03
2018-07-12T01:00:09.142Z,97937.95
2018-07-12T01:01:12.845Z,97938.30
2018-07-12T01:02:17.100Z,97939.56
2018-07-12T01:03:22.617Z,97931.17
2018-07-12T01:04:27.089Z,97930.58
2018-07-12T01:05:32.764Z,97932.66
2018-07-12T01:06:36.484Z,97930.23
2018-07-12T01:07:40.465Z,97924.83
2018-07-12T01:08:48.385Z,97918.72
2018-07-12T01:09:52.023Z,97916.77
2018-07-12T01:10:55.688Z,97918.95
2018-07-12T01:12:12.166Z,97918.95
2018-07-12T01:13:15.816Z,97918.70
2018-07-12T01:14:21.288Z,97914.91
2018-07-12T01:15:27.308Z,97916.29
2018-07-12T01:16:32.160Z,97923.17
2018-07-12T01:17:35.781Z,97919.46
2018-07-12T01:18:40.044Z,97927.16
2018-07-12T01:19:43.689Z,97924.28
2018-07-12T01:20:48.745Z,97928.18
2018-07-12T01:21:53.739Z,97927.48
2018-07-12T01:22:57.416Z,97927.59
2018-07-12T01:24:01.071Z,97926.44
2018-07-12T01:25:05.725Z,97921.59
2018-07-12T01:26:09.921Z,97926.65
2018-07-12T01:27:13.553Z,97927.45
2018-07-12T01:28:18.341Z,97927.67
2018-07-12T01:29:21.999Z,97921.67
2018-07-12T01:30:26.209Z,97918.91
2018-07-12T01:31:30.807Z,97919.80
2018-07-12T01:32:34.476Z,97922.42
2018-07-12T01:33:38.177Z,97921.27
2018-07-12T01:34:42.449Z,97922.19
2018-07-12T01:35:46.091Z,97920.22
2018-07-12T01:36:49.869Z,97927.34
2018-07-12T01:37:53.498Z,97930.89
2018-07-12T01:38:57.390Z,97932.16
2018-07-12T01:40:01.037Z,97924.23
2018-07-12T01:41:05.014Z,97925.84
2018-07-12T01:42:08.665Z,97925.48
2018-07-12T01:43:12.370Z,97927.10
2018-07-12T01:44:15.997Z,97926.19
2018-07-12T01:45:19.681Z,97930.78
2018-07-12T01:46:23.336Z,97935.28
2018-07-12T01:47:28.337Z,97929.88
2018-07-12T01:48:32.010Z,97930.22
2018-07-12T01:49:35.687Z,97932.30
2018-07-12T01:50:40.032Z,97931.73
2018-07-12T01:51:43.709Z,97927.59
2018-07-12T01:52:48.386Z,97931.94
2018-07-12T01:53:52.508Z,97926.30
2018-07-12T01:54:56.169Z,97926.75
2018-07-12T01:55:59.797Z,97924.69
2018-07-12T01:57:04.362Z,97927.31
2018-07-12T01:58:08.026Z,97924.89
2018-07-12T01:59:12.188Z,97929.49
2018-07-12T02:00:16.309Z,97926.97
2018-07-12T02:01:21.139Z,97927.08
2018-07-12T02:02:24.819Z,97927.42
2018-07-12T02:03:28.484Z,97928.69
2018-07-12T02:04:32.793Z,97931.11
2018-07-12T02:05:37.452Z,97933.98
2018-07-12T02:06:41.468Z,97933.63
2018-07-12T02:07:45.166Z,97925.81
2018-07-12T02:08:48.820Z,97926.16
2018-07-12T02:09:52.447Z,97927.77
2018-07-12T02:10:56.826Z,97929.14
2018-07-12T02:12:00.485Z,97933.28
2018-07-12T02:13:05.064Z,97934.20
2018-07-12T02:14:08.770Z,97932.12
2018-07-12T02:15:12.799Z,97934.20
2018-07-12T02:16:17.337Z,97938.34
2018-07-12T02:17:20.993Z,97930.76
2018-07-12T02:18:24.664Z,97931.56
2018-07-12T02:19:28.672Z,97927.77
2018-07-12T02:20:32.311Z,97927.42
2018-07-12T02:21:35.956Z,97929.14
2018-07-12T02:22:39.616Z,97930.97
2018-07-12T02:23:43.310Z,97929.70
2018-07-12T02:24:46.977Z,97929.81
2018-07-12T02:25:51.019Z,97927.84
2018-07-12T02:26:54.698Z,97936.34
2018-07-12T02:27:58.403Z,97936.80
2018-07-12T02:29:02.190Z,97937.50
2018-07-12T02:30:05.828Z,97938.06
2018-07-12T02:31:09.512Z,97934.80
2018-07-12T02:32:13.549Z,97931.58
2018-07-12T02:33:17.224Z,97939.27
2018-07-12T02:34:21.783Z,97937.75
2018-07-12T02:35:26.245Z,97939.22
2018-07-12T02:36:29.943Z,97939.22
2018-07-12T02:37:34.737Z,97942.66
2018-07-12T02:38:39.232Z,97936.35
2018-07-12T02:39:46.376Z,97941.86
2018-07-12T02:40:50.459Z,97945.30
2018-07-12T02:41:54.814Z,97943.47
2018-07-12T02:42:58.593Z,97948.06
2018-07-12T02:44:02.276Z,97948.77
2018-07-12T02:45:06.290Z,97951.09
2018-07-12T02:46:10.508Z,97950.17
2018-07-12T02:47:14.186Z,97952.87
2018-07-12T02:48:19.759Z,97946.91
2018-07-12T02:49:23.385Z,97949.05
2018-07-12T02:50:27.301Z,97947.22
2018-07-12T02:51:32.257Z,97950.97
2018-07-12T02:52:36.527Z,97953.67
2018-07-12T02:53:40.174Z,97949.95
2018-07-12T02:54:44.095Z,97944.70
2018-07-12T02:55:47.805Z,97948.63
2018-07-12T02:56:52.635Z,97946.00
2018-07-12T02:57:57.592Z,97946.59
2018-07-12T02:59:01.243Z,97944.42
2018-07-12T03:00:04.924Z,97941.08
2018-07-12T03:01:08.605Z,97945.58
2018-07-12T03:02:12.293Z,97942.14
2018-07-12T03:03:15.929Z,97942.03
2018-07-12T03:04:19.985Z,97944.10
2018-07-12T03:05:24.361Z,97941.50
2018-07-12T03:06:28.072Z,97942.84
2018-07-12T03:07:31.790Z,97943.57
2018-07-12T03:08:35.477Z,97943.01
2018-07-12T03:09:39.130Z,97948.87
2018-07-12T03:10:43.069Z,97938.77
2018-07-12T03:11:46.762Z,97936.02
2018-07-12T03:12:51.408Z,97931.67
2018-07-12T03:13:55.090Z,97937.42
2018-07-12T03:14:59.732Z,97937.20
2018-07-12T03:16:04.451Z,97939.95
2018-07-12T03:17:09.381Z,97939.50
2018-07-12T03:18:13.014Z,97935.96
2018-07-12T03:19:16.670Z,97934.73
2018-07-12T03:20:20.310Z,97940.09
2018-07-12T03:21:23.964Z,97942.77
2018-07-12T03:22:27.593Z,97946.09
2018-07-12T03:23:32.321Z,97947.88
2018-07-12T03:24:35.968Z,97948.23
2018-07-12T03:25:39.640Z,97948.94
2018-07-12T03:26:43.374Z,97946.83
2018-07-12T03:27:47.679Z,97948.94
2018-07-12T03:28:51.460Z,97947.44
2018-07-12T03:29:55.549Z,97946.66
2018-07-12T03:30:59.279Z,97949.78
2018-07-12T03:32:02.953Z,97948.88
2018-07-12T03:33:06.673Z,97955.68
2018-07-12T03:34:10.333Z,97957.40
2018-07-12T03:36:23.797Z,97954.13
2018-07-12T03:37:27.430Z,97953.67
2018-07-12T03:38:31.080Z,97953.57
2018-07-12T03:39:34.735Z,97954.27
2018-07-12T03:40:38.770Z,97956.59
2018-07-12T03:41:42.469Z,97950.97
2018-07-12T03:42:47.550Z,97955.46
2018-07-12T03:43:52.780Z,97956.52
2018-07-12T03:44:56.433Z,97954.23
2018-07-12T03:46:00.126Z,97949.07
2018-07-12T03:47:05.693Z,97954.47
2018-07-12T03:48:09.421Z,97949.69
2018-07-12T03:49:14.332Z,97952.57
2018-07-12T03:50:18.015Z,97950.84
2018-07-12T03:51:22.568Z,97953.63
2018-07-12T03:52:26.213Z,97952.25
2018-07-12T03:53:32.252Z,97952.95
2018-07-12T03:54:36.898Z,97956.17
2018-07-12T03:55:40.902Z,97953.30
2018-07-12T03:56:44.550Z,97958.70
2018-07-12T03:57:48.264Z,97958.14
2018-07-12T03:58:51.896Z,97957.57
2018-07-12T03:59:56.526Z,97962.62
2018-07-12T04:01:00.283Z,97956.77
2018-07-12T04:02:04.326Z,97961.26
2018-07-12T04:03:07.961Z,97960.45
2018-07-12T04:04:11.706Z,97961.72
2018-07-12T04:05:15.410Z,97960.00
2018-07-12T04:06:19.850Z,97961.13
2018-07-12T04:07:23.605Z,97963.76
2018-07-12T04:08:27.634Z,97958.25
2018-07-12T04:09:31.319Z,97960.20
2018-07-12T04:10:34.936Z,97958.37
2018-07-12T04:11:39.342Z,97962.62
2018-07-12T04:12:42.972Z,97959.19
2018-07-12T04:13:46.618Z,97964.59
2018-07-12T04:14:50.664Z,97965.40
2018-07-12T04:15:54.396Z,97969.89
2018-07-12T04:16:59.825Z,97968.17
2018-07-12T04:18:04.113Z,97965.53
2018-07-12T04:19:07.840Z,97965.64
2018-07-12T04:20:11.552Z,97964.83
2018-07-12T04:21:15.554Z,97971.96
2018-07-12T04:22:19.237Z,97969.89
2018-07-12T04:23:23.043Z,97970.12
2018-07-12T04:24:27.446Z,97974.66
2018-07-12T04:25:31.140Z,97974.20
2018-07-12T04:26:34.782Z,97975.70
2018-07-12T04:27:38.817Z,97975.03
2018-07-12T04:28:42.498Z,97975.95
2018-07-12T04:29:46.171Z,97982.51
2018-07-12T04:30:49.942Z,97976.42
2018-07-12T04:31:54.573Z,97984.14
2018-07-12T04:32:58.234Z,97983.69
2018-07-12T04:34:02.287Z,97976.34
2018-07-12T04:35:05.938Z,97980.02
2018-07-12T04:36:09.703Z,97988.69
2018-07-12T04:37:14.470Z,97994.45
2018-07-12T04:38:18.143Z,97985.72
2018-07-12T04:39:21.806Z,97986.08
2018-07-12T04:40:25.833Z,97984.57
2018-07-12T04:41:31.464Z,97985.44
2018-07-12T04:42:35.093Z,97980.72
2018-07-12T04:43:38.781Z,97983.06
2018-07-12T04:44:42.440Z,97981.69
2018-07-12T04:45:47.002Z,97979.63
2018-07-12T04:46:50.649Z,97980.31
2018-07-12T04:47:55.275Z,97980.92
2018-07-12T04:48:59.014Z,97979.44
2018-07-12T04:50:02.732Z,97981.51
2018-07-12T04:51:06.484Z,97974.25
2018-07-12T04:52:10.496Z,97978.73
2018-07-12T04:53:14.190Z,97981.23
2018-07-12T04:54:17.933Z,97979.76
2018-07-12T04:55:21.658Z,97981.27
2018-07-12T04:56:26.382Z,97977.58
2018-07-12T04:57:30.070Z,97981.91
2018-07-12T04:58:34.208Z,97982.96
2018-07-12T04:59:37.898Z,97990.36
2018-07-12T05:00:41.789Z,97986.97
2018-07-12T05:01:45.685Z,97985.03
2018-07-12T05:02:49.398Z,97988.82
2018-07-12T05:03:53.061Z,97986.52
2018-07-12T05:04:57.870Z,97986.86
2018-07-12T05:06:01.541Z,97983.41
2018-07-12T05:07:05.262Z,97986.98
2018-07-12T05:08:10.340Z,97992.52
2018-07-12T05:09:14.009Z,97991.84
2018-07-12T05:10:18.282Z,97990.47
2018-07-12T05:11:23.831Z,97993.52
2018-07-12T05:12:27.473Z,97991.03
2018-07-12T05:13:31.274Z,97989.55
2018-07-12T05:14:34.916Z,97991.05
2018-07-12T05:15:39.228Z,97992.79
2018-07-12T05:16:47.157Z,97989.11
2018-07-12T05:17:54.373Z,97991.80
2018-07-12T05:19:01.767Z,97990.16
2018-07-12T05:20:08.934Z,97998.94
2018-07-12T05:21:14.561Z,97997.91
2018-07-12T05:22:19.507Z,97999.28
2018-07-12T05:23:24.656Z,97996.86
2018-07-12T05:24:30.836Z,97996.64
2018-07-12T05:25:37.149Z,98003.90
2018-07-12T05:26:42.353Z,97999.08
2018-07-12T05:27:48.592Z,97999.88
2018-07-12T05:28:52.492Z,98002.30
2018-07-12T05:29:57.526Z,98005.75
2018-07-12T05:31:02.126Z,98003.56
2018-07-12T05:32:05.812Z,98005.88
2018-07-12T05:33:09.529Z,98010.47
2018-07-12T05:34:13.288Z,98007.14
2018-07-12T05:35:18.276Z,98010.48
2018-07-12T05:36:29.348Z,98007.06
2018-07-12T05:37:34.912Z,98010.36
2018-07-12T05:38:39.660Z,98011.73
2018-07-12T05:39:45.208Z,98010.47
2018-07-12T05:40:50.117Z,98016.12
2018-07-12T05:41:55.521Z,98014.61
2018-07-12T05:43:01.315Z,98012.20
2018-07-12T05:44:07.858Z,98012.55
2018-07-12T05:45:12.738Z,98010.25
2018-07-12T05:46:17.578Z,98012.53
2018-07-12T05:47:23.820Z,98016.91
2018-07-12T05:48:29.739Z,98017.39
2018-07-12T05:49:35.123Z,98012.89
2018-07-12T05:50:43.814Z,98011.20
2018-07-12T05:51:50.708Z,98011.91
2018-07-12T05:52:55.452Z,98013.39
2018-07-12T05:54:03.534Z,98018.20
2018-07-12T05:55:09.013Z,98017.08
2018-07-12T05:56:14.341Z,98020.77
2018-07-12T05:57:19.638Z,98024.56
2018-07-12T05:58:24.346Z,98034.24
2018-07-12T05:59:28.998Z,98027.79
2018-07-12T06:00:33.918Z,98024.69
2018-07-12T06:01:44.259Z,98026.87
2018-07-12T06:02:48.932Z,98037.13
2018-07-12T06:03:55.997Z,98031.02
2018-07-12T06:05:01.560Z,98036.07
2018-07-12T06:06:06.239Z,98035.55
2018-07-12T06:07:10.989Z,98033.48
2018-07-12T06:08:16.382Z,98035.77
2018-07-12T06:09:21.331Z,98038.98
2018-07-12T06:10:26.403Z,98041.34
2018-07-12T06:11:31.150Z,98038.14
2018-07-12T06:12:35.886Z,98041.80
2018-07-12T06:13:42.400Z,98043.34
2018-07-12T06:14:48.382Z,98045.87
2018-07-12T06:15:53.578Z,98038.76
2018-07-12T06:17:00.465Z,98040.32
2018-07-12T06:18:07.303Z,98042.66
2018-07-12T06:19:13.018Z,98050.73
2018-07-12T06:20:21.598Z,98047.75
2018-07-12T06:21:28.357Z,98050.95
2018-07-12T06:22:34.237Z,98049.36
2018-07-12T06:23:41.238Z,98050.36
2018-07-12T06:24:49.685Z,98051.30
2018-07-12T06:25:54.755Z,98053.13
2018-07-12T06:27:00.735Z,98056.84
2018-07-12T06:28:05.332Z,98058.23
2018-07-12T06:29:09.880Z,98057.78
2018-07-12T06:30:14.483Z,98055.00
2018-07-12T06:31:19.290Z,98058.59
2018-07-12T06:32:40.004Z,98061.13
2018-07-12T06:33:45.110Z,98059.13
2018-07-12T06:34:49.721Z,98059.02
2018-07-12T06:35:55.691Z,98061.02
2018-07-12T06:37:00.767Z,98058.61
2018-07-12T06:38:06.821Z,98059.83
2018-07-12T06:39:12.264Z,98061.04
2018-07-12T06:40:16.899Z,98063.84
2018-07-12T06:41:22.349Z,98059.39
2018-07-12T06:42:27.787Z,98056.41
2018-07-12T06:43:33.756Z,98058.72
2018-07-12T06:44:38.329Z,98062.18
2018-07-12T06:45:44.629Z,98058.59
2018-07-12T06:46:49.252Z,98060.33
2018-07-12T06:47:54.863Z,98063.48
2018-07-12T06:49:00.424Z,98059.88
2018-07-12T06:50:06.620Z,98064.71
2018-07-12T06:51:12.225Z,98067.34
2018-07-12T06:52:20.130Z,98068.38
2018-07-12T06:53:28.807Z,98064.59
2018-07-12T06:54:36.921Z,98065.75
2018-07-12T06:55:42.457Z,98066.90
2018-07-12T06:56:47.333Z,98063.91
2018-07-12T06:57:52.024Z,98080.19
2018-07-12T06:58:57.360Z,98067.39
2018-07-12T07:00:04.148Z,98071.31
2018-07-12T07:01:08.862Z,98075.99
2018-07-12T07:02:14.959Z,98077.66
2018-07-12T07:03:20.347Z,98082.67
2018-07-12T07:04:25.094Z,98077.42
2018-07-12T07:05:38.191Z,98085.59
2018-07-12T07:06:42.859Z,98083.11
2018-07-12T07:07:48.745Z,98087.31
2018-07-12T07:08:55.137Z,98080.87
2018-07-12T07:10:00.843Z,98082.13
2018-07-12T07:11:05.566Z,98086.95
2018-07-12T07:12:12.744Z,98089.52
2018-07-12T07:13:19.429Z,98084.16
2018-07-12T07:14:24.171Z,98088.02
2018-07-12T07:15:28.860Z,98088.94
2018-07-12T07:16:34.371Z,98087.59
2018-07-12T07:17:40.678Z,98085.95
2018-07-12T07:18:45.927Z,98089.97
2018-07-12T07:19:51.725Z,98092.93
2018-07-12T07:20:57.347Z,98086.59
2018-07-12T07:22:02.744Z,98093.55
2018-07-12T07:23:09.289Z,98101.11
2018-07-12T07:24:16.883Z,98093.41
2018-07-12T07:25:23.424Z,98091.44
2018-07-12T07:26:29.344Z,98096.86
2018-07-12T07:27:34.574Z,98094.31
2018-07-12T07:28:40.010Z,98098.58
2018-07-12T07:29:45.980Z,98095.37
2018-07-12T07:30:50.619Z,98096.18
2018-07-12T07:31:58.629Z,98089.93
2018-07-12T07:33:05.117Z,98095.34
2018-07-12T07:34:10.410Z,98097.42
2018-07-12T07:35:16.349Z,98088.09
2018-07-12T07:36:22.457Z,98096.16
2018-07-12T07:37:28.990Z,98094.08
2018-07-12T07:38:35.805Z,98093.38
2018-07-12T07:39:41.657Z,98092.61
2018-07-12T07:40:46.217Z,98101.80
2018-07-12T07:41:51.459Z,98103.87
2018-07-12T07:42:57.952Z,98098.83
2018-07-12T07:44:03.571Z,98102.52
2018-07-12T07:45:09.262Z,98105.50
2018-07-12T07:46:13.878Z,98103.67
2018-07-12T07:47:23.269Z,98110.44
2018-07-12T07:48:27.943Z,98107.34
2018-07-12T07:49:34.361Z,98108.50
2018-07-12T07:50:40.889Z,98107.92
2018-07-12T07:51:46.881Z,98110.48
2018-07-12T07:52:52.140Z,98109.66
2018-07-12T07:53:56.795Z,98108.04
2018-07-12T07:55:02.319Z,98107.11
2018-07-12T07:56:07.154Z,98113.79
2018-07-12T07:57:12.168Z,98112.60
2018-07-12T07:58:21.882Z,98114.26
2018-07-12T07:59:30.780Z,98111.75
2018-07-12T08:00:39.011Z,98115.16
2018-07-12T08:01:43.735Z,98112.86
2018-07-12T08:02:48.941Z,98111.57
2018-07-12T08:03:54.477Z,98108.79
2018-07-12T08:05:04.314Z,98106.98
2018-07-12T08:06:09.751Z,98110.73
2018-07-12T08:07:14.446Z,98108.89
2018-07-12T08:08:21.128Z,98109.98
2018-07-12T08:09:27.472Z,98108.16
2018-07-12T08:10:32.818Z,98107.88
2018-07-12T08:11:39.431Z,98112.72
2018-07-12T08:12:47.801Z,98109.47
2018-07-12T08:13:52.458Z,98117.17
2018-07-12T08:15:00.761Z,98108.89
2018-07-12T08:16:05.436Z,98109.98
2018-07-12T08:17:11.229Z,98113.95
2018-07-12T08:18:16.226Z,98119.81
2018-07-12T08:19:22.367Z,98115.88
2018-07-12T08:20:35.801Z,98113.30
2018-07-12T08:21:48.380Z,98118.63
2018-07-12T08:22:53.822Z,98116.88
2018-07-12T08:23:58.572Z,98115.44
2018-07-12T08:25:05.713Z,98115.39
2018-07-12T08:26:11.392Z,98109.26
2018-07-12T08:27:16.890Z,98113.88
2018-07-12T08:28:26.077Z,98114.06
2018-07-12T08:29:32.713Z,98116.31
2018-07-12T08:30:40.553Z,98119.53
2018-07-12T08:31:48.453Z,98117.41
2018-07-12T08:32:54.103Z,98123.30
2018-07-12T08:33:58.780Z,98118.06
2018-07-12T08:35:03.466Z,98117.89
2018-07-12T08:36:09.131Z,98114.43
2018-07-12T08:37:13.858Z,98119.08
2018-07-12T08:38:19.913Z,98117.92
2018-07-12T08:39:24.676Z,98121.34
2018-07-12T08:40:30.202Z,98118.42
2018-07-12T08:41:35.514Z,98114.91
2018-07-12T08:42:41.828Z,98112.23
2018-07-12T08:43:46.794Z,98118.36
2018-07-12T08:44:53.583Z,98115.69
2018-07-12T08:45:58.116Z,98122.33
2018-07-12T08:47:03.397Z,98124.45
2018-07-12T08:48:09.448Z,98126.30
2018-07-12T08:49:16.174Z,98119.14
2018-07-12T08:50:22.161Z,98122.44
2018-07-12T08:51:28.353Z,98127.25
2018-07-12T08:52:34.463Z,98130.34
2018-07-12T08:53:39.166Z,98122.78
2018-07-12T08:54:44.849Z,98122.31
2018-07-12T08:55:51.359Z,98124.16
2018-07-12T08:56:56.689Z,98116.44
2018-07-12T08:58:01.468Z,98125.11
2018-07-12T08:59:07.770Z,98126.52
2018-07-12T09:00:12.478Z,98119.57
2018-07-12T09:01:17.102Z,98118.16
2018-07-12T09:02:24.751Z,98129.36
2018-07-12T09:03:29.897Z,98127.90
2018-07-12T09:04:36.366Z,98124.13
2018-07-12T09:05:42.862Z,98120.59
2018-07-12T09:06:47.435Z,98126.55
2018-07-12T09:07:52.174Z,98128.41
2018-07-12T09:08:56.765Z,98128.14
2018-07-12T09:10:02.877Z,98130.78
2018-07-12T09:11:08.543Z,98129.79
2018-07-12T09:12:13.182Z,98127.46
2018-07-12T09:13:17.780Z,98126.10
2018-07-12T09:14:24.291Z,98130.70
2018-07-12T09:15:29.293Z,98128.70
2018-07-12T09:16:35.223Z,98125.74
2018-07-12T09:17:40.206Z,98130.17
2018-07-12T09:18:44.795Z,98135.49
2018-07-12T09:19:51.915Z,98133.95
2018-07-12T09:21:00.102Z,98126.72
2018-07-12T09:22:05.775Z,98126.35
2018-07-12T09:23:12.290Z,98131.14
2018-07-12T09:24:17.122Z,98129.69
2018-07-12T09:25:21.957Z,98128.73
2018-07-12T09:26:27.031Z,98129.50
2018-07-12T09:27:32.871Z,98125.93
2018-07-12T09:28:37.697Z,98131.47
2018-07-12T09:29:42.825Z,98126.47
2018-07-12T09:30:48.328Z,98127.84
2018-07-12T09:31:53.856Z,98124.78
2018-07-12T09:32:59.141Z,98131.22
2018-07-12T09:34:04.236Z,98125.06
2018-07-12T09:35:09.067Z,98130.67
2018-07-12T09:36:15.034Z,98129.38
2018-07-12T09:37:20.718Z,98130.32
2018-07-12T09:40:33.398Z,98133.72
2018-07-12T09:41:42.715Z,98133.23
2018-07-12T09:42:47.358Z,98129.45
2018-07-12T09:43:53.404Z,98129.59
2018-07-12T09:44:58.033Z,98131.47
2018-07-12T09:46:02.771Z,98130.80
2018-07-12T09:47:10.353Z,98128.90
2018-07-12T09:48:16.385Z,98127.16
2018-07-12T09:49:21.812Z,98126.07
2018-07-12T09:50:26.381Z,98131.91
2018-07-12T09:51:31.049Z,98125.73
2018-07-12T09:52:40.789Z,98131.55
2018-07-12T09:53:47.414Z,98138.81
2018-07-12T09:54:52.529Z,98138.26
2018-07-12T09:56:00.417Z,98138.93
2018-07-12T09:57:12.434Z,98142.78
2018-07-12T09:58:22.413Z,98143.25
2018-07-12T09:59:28.067Z,98143.54
2018-07-12T10:00:38.191Z,98141.31
2018-07-12T10:01:48.505Z,98147.30
2018-07-12T10:03:03.650Z,98153.22
2018-07-12T10:04:08.777Z,98144.48
2018-07-12T10:05:19.962Z,98146.09
2018-07-12T10:06:41.741Z,98146.98
2018-07-12T10:07:57.035Z,98147.94
2018-07-12T10:11:21.788Z,98150.11
2018-07-12T10:12:32.925Z,98150.68
2018-07-12T10:15:04.962Z,98139.77
2018-07-12T10:16:15.780Z,98147.02
2018-07-12T10:17:25.323Z,98148.30
2018-07-12T10:18:31.093Z,98144.58
2018-07-12T10:19:38.096Z,98150.27
2018-07-12T10:20:43.244Z,98144.07
2018-07-12T10:21:48.005Z,98139.58
2018-07-12T10:22:52.689Z,98145.02
2018-07-12T10:23:58.598Z,98141.41
2018-07-12T10:25:04.022Z,98144.20
2018-07-12T10:26:08.887Z,98148.91
2018-07-12T10:27:16.648Z,98151.14
2018-07-12T10:28:22.953Z,98152.95
2018-07-12T10:29:28.653Z,98147.27
2018-07-12T10:30:35.661Z,98149.02
2018-07-12T10:31:41.859Z,98150.53
2018-07-12T10:32:48.128Z,98152.67
2018-07-12T10:33:52.857Z,98153.06
2018-07-12T10:34:57.807Z,98151.14
2018-07-12T10:36:03.515Z,98150.22
2018-07-12T10:37:08.555Z,98149.00
2018-07-12T10:38:14.167Z,98152.31
2018-07-12T10:39:23.311Z,98149.86
2018-07-12T10:40:31.125Z,98150.69
2018-07-12T10:41:39.303Z,98158.05
2018-07-12T10:42:47.925Z,98153.73
2018-07-12T10:43:53.212Z,98151.42
2018-07-12T10:44:58.146Z,98152.42
2018-07-12T10:46:04.383Z,98151.76
2018-07-12T10:47:09.397Z,98147.80
2018-07-12T10:48:14.060Z,98152.39
2018-07-12T10:49:20.077Z,98150.16
2018-07-12T10:50:28.667Z,98153.27
2018-07-12T10:51:34.705Z,98148.91
2018-07-12T10:52:39.355Z,98156.56
2018-07-12T10:53:44.360Z,98155.94
2018-07-12T10:54:53.628Z,98153.80
2018-07-12T10:56:02.342Z,98157.10
2018-07-12T10:57:07.259Z,98150.04
2018-07-12T10:58:13.896Z,98154.55
2018-07-12T10:59:20.664Z,98156.59
2018-07-12T11:00:26.342Z,98160.88
2018-07-12T11:01:31.668Z,98157.20
2018-07-12T11:02:37.868Z,98158.16
2018-07-12T11:03:43.347Z,98154.17
2018-07-12T11:04:51.692Z,98157.72
2018-07-12T11:05:58.089Z,98156.52
2018-07-12T11:07:03.367Z,98153.47
2018-07-12T11:08:11.360Z,98155.81
2018-07-12T11:09:16.426Z,98155.51
2018-07-12T11:10:21.830Z,98154.63
2018-07-12T11:11:26.965Z,98152.94
2018-07-12T11:12:32.537Z,98152.14
2018-07-12T11:13:42.324Z,98155.73
2018-07-12T11:14:47.474Z,98152.36
2018-07-12T11:15:52.251Z,98147.59
2018-07-12T11:16:57.124Z,98153.58
2018-07-12T11:18:04.009Z,98153.81
2018-07-12T11:19:08.690Z,98155.75
2018-07-12T11:20:15.692Z,98151.17
2018-07-12T11:21:23.457Z,98155.25
2018-07-12T11:22:30.278Z,98149.26
2018-07-12T11:23:36.135Z,98160.16
2018-07-12T11:24:42.468Z,98160.33
2018-07-12T11:25:47.308Z,98160.00
2018-07-12T11:26:52.922Z,98154.53
2018-07-12T11:28:00.413Z,98153.73
2018-07-12T11:29:06.659Z,98152.04
2018-07-12T11:30:12.254Z,98145.56
2018-07-12T11:31:17.503Z,98150.32
2018-07-12T11:32:22.863Z,98148.38
2018-07-12T11:33:47.168Z,98149.63
2018-07-12T11:35:55.393Z,98153.92
2018-07-12T11:37:00.942Z,98154.92
2018-07-12T11:38:05.571Z,98152.42
2018-07-12T11:39:12.175Z,98156.48
2018-07-12T11:40:17.894Z,98158.50
2018-07-12T11:41:23.252Z,98159.83
2018-07-12T11:42:31.325Z,98156.14
2018-07-12T11:43:36.964Z,98162.47
2018-07-12T11:44:44.260Z,98155.05
2018-07-12T11:45:49.653Z,98152.04
2018-07-12T11:46:57.345Z,98154.69
2018-07-12T11:48:05.626Z,98154.77
2018-07-12T11:49:11.825Z,98153.72
2018-07-12T11:50:16.638Z,98156.61
2018-07-12T11:51:23.438Z,98152.77
2018-07-12T11:52:28.996Z,98148.59
2018-07-12T11:53:34.180Z,98154.71
2018-07-12T11:54:39.564Z,98157.27
2018-07-12T11:55:44.262Z,98158.89
2018-07-12T11:56:49.606Z,98152.48
2018-07-12T11:57:57.488Z,98152.80
2018-07-12T11:59:03.495Z,98160.03
2018-07-12T12:00:08.790Z,98155.70
2018-07-12T12:01:13.432Z,98153.12
2018-07-12T12:02:18.965Z,98155.86
2018-07-12T12:03:25.184Z,98156.63
2018-07-12T12:04:34.032Z,98154.71
2018-07-12T12:05:42.482Z,98150.39
2018-07-12T12:06:48.820Z,98157.27
2018-07-12T12:07:54.300Z,98157.61
2018-07-12T12:08:59.618Z,98154.06
2018-07-12T12:10:07.074Z,98154.69
2018-07-12T12:11:12.632Z,98157.55
2018-07-12T12:12:17.512Z,98153.53
2018-07-12T12:13:22.186Z,98153.21
2018-07-12T12:14:27.139Z,98154.97
2018-07-12T12:15:32.736Z,98161.52
2018-07-12T12:16:38.284Z,98161.94
2018-07-12T12:17:43.545Z,98155.87
2018-07-12T12:18:49.569Z,98153.61
2018-07-12T12:19:55.441Z,98153.20
2018-07-12T12:21:00.046Z,98158.92
2018-07-12T12:22:07.735Z,98152.00
2018-07-12T12:23:12.734Z,98154.23
2018-07-12T12:24:17.549Z,98153.30
2018-07-12T12:25:22.758Z,98150.66
2018-07-12T12:26:30.380Z,98153.30
2018-07-12T12:27:36.437Z,98145.36
2018-07-12T12:28:42.327Z,98145.62
2018-07-12T12:29:48.539Z,98145.27
2018-07-12T12:30:53.735Z,98146.01
2018-07-12T12:31:58.721Z,98146.11
2018-07-12T12:33:06.942Z,98150.09
2018-07-12T12:34:12.273Z,98140.70
2018-07-12T12:35:17.603Z,98135.19
2018-07-12T12:36:26.555Z,98133.20
2018-07-12T12:37:31.857Z,98137.77
2018-07-12T12:38:36.783Z,98132.42
2018-07-12T12:39:42.378Z,98130.59
2018-07-12T12:40:47.041Z,98128.88
2018-07-12T12:41:54.055Z,98127.34
2018-07-12T12:42:59.405Z,98127.86
2018-07-12T12:44:06.731Z,98127.06
2018-07-12T12:45:11.497Z,98125.36
2018-07-12T12:46:17.805Z,98124.00
2018-07-12T12:47:24.488Z,98122.56
2018-07-12T12:48:30.399Z,98130.67
2018-07-12T12:49:36.202Z,98133.20
2018-07-12T12:50:42.553Z,98122.07
2018-07-12T12:51:48.375Z,98121.66
2018-07-12T12:52:54.099Z,98123.83
2018-07-12T12:53:59.332Z,98120.98
2018-07-12T12:55:03.961Z,98123.38
2018-07-12T12:56:08.523Z,98118.73
2018-07-12T12:57:14.260Z,98120.33